Fort Klamath, Oregon
Current Conditions -  °F | °C
As of 5:53 AM on Saturday 25 Oct 2014 (Local Time) from KLMT Reporting Station
Broken Clouds Broken Clouds  
Wind Chill: 51°   Ceiling: 4800
Heat Index: 51°   Visibility: 10mi
Dew Point: 38°   Wind: 16mph
Humidity: 61%   Direction: 170°S
Pressure: 29.7"   Gusts: 26mph
Location:  42.7°N, 122°W
Report Text: KLMT 251253Z AUTO 17014G23KT 10SM BKN048 11/03 A2970 RMK AO2 PK WND 16040/1203 RAE15 SLP033 P0000 T01060033
Loading
Personal Weather Stations






























Interactive Weather Map New forecast layout! Learn more

10-Day Weather Forecast

Advertisements
Track Severe Weather on mobile